Terminal Aerodrome Forecast
Issued by NWS Milwaukee/Sullivan, WI

Home | Current Version | Previous Version | Text Only | Print | Product List | Glossary On
Versions: 1 2 3 4 5 6 7 8 9 10 11 12 13 14 15 16 17 18 19 20 21 22 23 24 25 26 27 28 29 30 31 32 33
000
FTUS43 KMKX 222328
TAFMSN
TAF
KMSN 222328Z 2300/2324 VRB03KT P6SM BKN250
     FM230300 12004KT P6SM BKN250
     FM231400 18007KT P6SM SCT250
     FM232000 20007KT P6SM SCT070 BKN110=

USA.gov is the U.S. government's official web portal to all federal, state and local government web resources and services.